createdAt,value
2017-06-29T00:01:48.668Z,21.20
2017-06-29T00:04:14.614Z,21.20
2017-06-29T00:06:40.547Z,21.20
2017-06-29T00:09:07.231Z,21.30
2017-06-29T00:11:33.211Z,21.20
2017-06-29T00:13:59.136Z,21.30
2017-06-29T00:16:25.055Z,21.20
2017-06-29T00:18:50.979Z,21.20
2017-06-29T00:21:16.904Z,21.20
2017-06-29T00:23:42.828Z,21.20
2017-06-29T00:26:08.760Z,21.30
2017-06-29T00:28:34.704Z,21.30
2017-06-29T00:31:00.667Z,21.40
2017-06-29T00:33:26.628Z,21.40
2017-06-29T00:35:52.575Z,21.30
2017-06-29T00:38:18.466Z,21.40
2017-06-29T00:40:44.419Z,21.30
2017-06-29T00:43:10.340Z,21.50
2017-06-29T00:45:37.123Z,21.50
2017-06-29T00:48:03.975Z,21.50
2017-06-29T00:50:29.912Z,21.50
2017-06-29T00:52:55.833Z,21.40
2017-06-29T00:55:21.740Z,21.30
2017-06-29T00:57:47.680Z,21.30
2017-06-29T01:00:13.601Z,21.40
2017-06-29T01:02:39.541Z,21.40
2017-06-29T01:05:05.471Z,21.40
2017-06-29T01:07:31.423Z,21.40
2017-06-29T01:09:57.376Z,21.40
2017-06-29T01:12:23.312Z,21.30
2017-06-29T01:14:49.260Z,21.10
2017-06-29T01:17:16.049Z,21.00
2017-06-29T01:19:42.084Z,21.00
2017-06-29T01:22:08.004Z,20.90
2017-06-29T01:24:33.927Z,20.90
2017-06-29T01:26:59.841Z,20.80
2017-06-29T01:29:25.786Z,20.80
2017-06-29T01:31:51.988Z,20.70
2017-06-29T01:34:17.954Z,20.60
2017-06-29T01:36:43.880Z,20.30
2017-06-29T01:39:09.855Z,20.30
2017-06-29T01:41:35.905Z,20.40
2017-06-29T01:44:01.953Z,20.40
2017-06-29T01:46:27.919Z,20.30
2017-06-29T01:48:53.855Z,20.30
2017-06-29T01:51:20.542Z,20.20
2017-06-29T01:53:46.504Z,20.10
2017-06-29T01:56:12.418Z,20.10
2017-06-29T01:58:38.351Z,20.00
2017-06-29T02:01:04.285Z,19.80
2017-06-29T02:03:30.259Z,19.70
2017-06-29T02:05:56.921Z,19.90
2017-06-29T02:08:22.852Z,19.80
2017-06-29T02:10:48.771Z,20.00
2017-06-29T02:13:14.696Z,19.90
2017-06-29T02:15:40.632Z,19.90
2017-06-29T02:18:06.574Z,19.90
2017-06-29T02:20:32.515Z,19.90
2017-06-29T02:22:58.449Z,19.90
2017-06-29T02:25:24.374Z,19.80
2017-06-29T02:27:50.267Z,19.60
2017-06-29T02:30:16.213Z,19.60
2017-06-29T02:32:42.164Z,19.70
2017-06-29T02:35:08.101Z,19.90
2017-06-29T02:37:34.070Z,19.80
2017-06-29T02:40:00.784Z,19.70
2017-06-29T02:42:26.719Z,19.60
2017-06-29T02:44:52.667Z,19.60
2017-06-29T02:47:18.631Z,19.50
2017-06-29T02:49:44.556Z,19.40
2017-06-29T02:52:10.507Z,19.30
2017-06-29T02:54:37.248Z,19.30
2017-06-29T02:57:03.191Z,19.20
2017-06-29T02:59:29.143Z,19.30
2017-06-29T03:01:55.095Z,19.10
2017-06-29T03:04:21.783Z,18.80
2017-06-29T03:06:47.709Z,18.80
2017-06-29T03:09:13.656Z,18.70
2017-06-29T03:11:39.611Z,18.40
2017-06-29T03:14:05.648Z,18.20
2017-06-29T03:16:31.763Z,17.90
2017-06-29T03:18:57.708Z,17.90
2017-06-29T03:21:23.695Z,18.10
2017-06-29T03:23:50.365Z,18.20
2017-06-29T03:26:16.281Z,18.10
2017-06-29T03:28:42.207Z,18.20
2017-06-29T03:31:08.147Z,18.10
2017-06-29T03:33:34.076Z,18.10
2017-06-29T03:36:00.017Z,18.00
2017-06-29T03:38:25.955Z,18.00
2017-06-29T03:40:51.902Z,18.00
2017-06-29T03:43:17.824Z,18.10
2017-06-29T03:45:43.779Z,18.00
2017-06-29T03:48:09.767Z,17.90
2017-06-29T03:50:35.667Z,17.90
2017-06-29T03:53:01.579Z,17.80
2017-06-29T03:55:28.237Z,17.80
2017-06-29T03:57:54.151Z,17.80
2017-06-29T04:00:20.103Z,17.90
2017-06-29T04:02:46.020Z,17.90
2017-06-29T04:05:11.939Z,17.70
2017-06-29T04:07:37.851Z,17.60
2017-06-29T04:10:03.822Z,17.50
2017-06-29T04:12:29.781Z,17.50
2017-06-29T04:14:55.715Z,17.40
2017-06-29T04:17:21.634Z,17.30
2017-06-29T04:19:47.593Z,17.30
2017-06-29T04:22:13.547Z,17.30
2017-06-29T04:24:40.201Z,17.30
2017-06-29T04:27:06.119Z,17.30
2017-06-29T04:29:32.092Z,17.30
2017-06-29T04:31:58.101Z,17.20
2017-06-29T04:34:24.033Z,17.20
2017-06-29T04:36:49.942Z,17.40
2017-06-29T04:39:15.902Z,17.40
2017-06-29T04:41:41.814Z,17.40
2017-06-29T04:44:08.520Z,17.30
2017-06-29T04:46:34.421Z,17.20
2017-06-29T04:49:00.379Z,17.20
2017-06-29T04:51:26.291Z,17.30
2017-06-29T04:53:52.222Z,17.30
2017-06-29T04:56:18.151Z,17.40
2017-06-29T04:58:44.083Z,17.50
2017-06-29T05:01:10.069Z,17.40
2017-06-29T05:03:35.971Z,17.30
2017-06-29T05:06:02.039Z,17.20
2017-06-29T05:08:27.950Z,17.20
2017-06-29T05:10:53.872Z,17.30
2017-06-29T05:13:19.787Z,17.30
2017-06-29T05:15:46.000Z,17.40
2017-06-29T05:18:11.984Z,17.40
2017-06-29T05:20:37.876Z,17.40
2017-06-29T05:23:03.860Z,17.30
2017-06-29T05:25:29.795Z,17.30
2017-06-29T05:27:55.783Z,17.50
2017-06-29T05:30:21.726Z,17.40
2017-06-29T05:32:47.654Z,17.40
2017-06-29T05:35:13.587Z,17.40
2017-06-29T05:37:39.519Z,17.40
2017-06-29T05:40:06.156Z,17.40
2017-06-29T05:42:32.091Z,17.30
2017-06-29T05:44:58.015Z,17.50
2017-06-29T05:47:23.960Z,17.40
2017-06-29T05:49:49.914Z,17.40
2017-06-29T05:52:15.848Z,17.40
2017-06-29T05:54:41.787Z,17.50
2017-06-29T05:57:07.742Z,17.50
2017-06-29T05:59:33.745Z,17.60
2017-06-29T06:01:59.738Z,17.60
2017-06-29T06:04:26.324Z,17.60
2017-06-29T06:06:52.247Z,17.60
2017-06-29T06:09:18.254Z,17.70
2017-06-29T06:11:44.177Z,17.70
2017-06-29T06:14:10.120Z,17.80
2017-06-29T06:16:36.079Z,17.60
2017-06-29T06:19:02.764Z,17.60
2017-06-29T06:21:28.984Z,17.50
2017-06-29T06:23:54.921Z,17.60
2017-06-29T06:26:20.882Z,17.80
2017-06-29T06:28:46.827Z,17.90
2017-06-29T06:31:12.771Z,17.90
2017-06-29T06:33:38.804Z,17.70
2017-06-29T06:36:05.429Z,17.80
2017-06-29T06:38:31.387Z,17.70
2017-06-29T06:40:57.370Z,17.90
2017-06-29T06:43:23.301Z,17.90
2017-06-29T06:45:49.311Z,18.00
2017-06-29T06:48:15.223Z,17.70
2017-06-29T06:50:41.150Z,17.70
2017-06-29T06:53:07.071Z,17.80
2017-06-29T06:55:33.010Z,17.80
2017-06-29T06:57:58.991Z,17.70
2017-06-29T07:00:24.978Z,17.60
2017-06-29T07:02:50.908Z,17.60
2017-06-29T07:05:16.826Z,17.50
2017-06-29T07:07:42.799Z,17.60
2017-06-29T07:10:08.797Z,17.50
2017-06-29T07:12:35.509Z,17.50
2017-06-29T07:15:01.514Z,17.50
2017-06-29T07:17:27.527Z,17.50
2017-06-29T07:19:53.503Z,17.60
2017-06-29T07:22:19.433Z,17.70
2017-06-29T07:24:45.360Z,17.80
2017-06-29T07:27:11.369Z,17.80
2017-06-29T07:29:38.202Z,17.80
2017-06-29T07:32:04.159Z,17.90
2017-06-29T07:34:30.083Z,17.90
2017-06-29T07:36:56.042Z,17.90
2017-06-29T07:39:21.967Z,17.90
2017-06-29T07:41:47.911Z,18.00
2017-06-29T07:44:13.840Z,17.90
2017-06-29T07:46:39.790Z,18.10
2017-06-29T07:49:05.817Z,18.10
2017-06-29T07:51:31.732Z,18.00
2017-06-29T07:53:57.653Z,18.00
2017-06-29T07:56:23.567Z,18.00
2017-06-29T07:58:49.601Z,18.00
2017-06-29T08:01:15.523Z,18.00
2017-06-29T08:03:41.503Z,18.00
2017-06-29T08:06:07.441Z,18.10
2017-06-29T08:08:33.426Z,18.00
2017-06-29T08:10:59.382Z,17.90
2017-06-29T08:13:25.329Z,17.90
2017-06-29T08:15:51.251Z,18.00
2017-06-29T08:18:17.203Z,18.00
2017-06-29T08:20:43.127Z,18.00
2017-06-29T08:23:09.094Z,18.10
2017-06-29T08:25:35.039Z,18.10
2017-06-29T08:28:00.971Z,18.20
2017-06-29T08:30:26.896Z,18.30
2017-06-29T08:32:52.835Z,18.30
2017-06-29T08:35:19.531Z,18.50
2017-06-29T08:37:45.452Z,18.40
2017-06-29T08:40:11.385Z,18.50
2017-06-29T08:42:37.305Z,18.40
2017-06-29T08:45:03.235Z,18.40
2017-06-29T08:47:29.198Z,18.30
2017-06-29T08:49:55.152Z,18.20
2017-06-29T08:52:21.065Z,18.20
2017-06-29T08:54:47.031Z,18.30
2017-06-29T08:57:13.763Z,18.50
2017-06-29T08:59:39.684Z,18.40
2017-06-29T09:02:05.628Z,18.50
2017-06-29T09:04:31.608Z,18.60
2017-06-29T09:06:57.553Z,18.70
2017-06-29T09:09:23.467Z,18.70
2017-06-29T09:11:49.471Z,18.80
2017-06-29T09:14:15.399Z,18.80
2017-06-29T09:16:41.311Z,18.90
2017-06-29T09:19:07.250Z,19.10
2017-06-29T09:21:33.158Z,19.10
2017-06-29T09:23:59.083Z,19.10
2017-06-29T09:26:25.007Z,19.20
2017-06-29T09:28:50.995Z,19.20
2017-06-29T09:31:16.952Z,19.10
2017-06-29T09:33:42.871Z,19.00
2017-06-29T09:36:08.826Z,18.80
2017-06-29T09:38:34.743Z,18.80
2017-06-29T09:41:00.672Z,18.70
2017-06-29T09:43:26.751Z,18.80
2017-06-29T09:45:52.647Z,18.80
2017-06-29T09:48:18.571Z,18.80
2017-06-29T09:50:44.502Z,18.80
2017-06-29T09:53:10.519Z,18.80
2017-06-29T09:55:36.427Z,18.90
2017-06-29T09:58:02.417Z,18.80
2017-06-29T10:00:28.355Z,18.80
2017-06-29T10:02:54.712Z,18.70
2017-06-29T10:05:20.639Z,18.80
2017-06-29T10:07:46.609Z,18.90
2017-06-29T10:10:13.311Z,19.00
2017-06-29T10:12:39.291Z,18.90
2017-06-29T10:15:05.214Z,19.00
2017-06-29T10:17:31.195Z,19.00
2017-06-29T10:19:57.150Z,19.10
2017-06-29T10:22:23.075Z,19.20
2017-06-29T10:24:48.990Z,19.20
2017-06-29T10:27:14.928Z,19.20
2017-06-29T10:29:40.898Z,19.20
2017-06-29T10:32:06.838Z,19.30
2017-06-29T10:34:32.759Z,19.50
2017-06-29T10:36:58.691Z,19.50
2017-06-29T10:39:24.610Z,19.50
2017-06-29T10:41:50.695Z,19.60
2017-06-29T10:44:16.608Z,19.70
2017-06-29T10:46:42.579Z,19.70
2017-06-29T10:49:08.503Z,19.70
2017-06-29T10:51:34.483Z,19.70
2017-06-29T10:54:00.427Z,19.60
2017-06-29T10:56:26.342Z,19.50
2017-06-29T10:58:52.263Z,19.60
2017-06-29T11:01:18.231Z,19.70
2017-06-29T11:03:44.166Z,19.80
2017-06-29T11:06:10.075Z,19.70
2017-06-29T11:08:36.058Z,19.80
2017-06-29T11:11:01.980Z,19.90
2017-06-29T11:13:27.916Z,19.80
2017-06-29T11:15:53.971Z,19.80
2017-06-29T11:18:19.971Z,19.80
2017-06-29T11:20:45.893Z,19.80
2017-06-29T11:23:11.823Z,19.80
2017-06-29T11:25:37.739Z,19.90
2017-06-29T11:28:03.660Z,19.90
2017-06-29T11:30:29.603Z,20.00
2017-06-29T11:32:55.535Z,19.90
2017-06-29T11:35:21.520Z,19.90
2017-06-29T11:37:47.469Z,20.00
2017-06-29T11:40:13.429Z,20.10
2017-06-29T11:42:39.341Z,20.10
2017-06-29T11:45:05.258Z,20.10
2017-06-29T11:47:31.194Z,20.20
2017-06-29T11:49:58.053Z,20.20
2017-06-29T11:52:23.969Z,20.40
2017-06-29T11:54:49.964Z,20.60
2017-06-29T11:57:15.865Z,20.90
2017-06-29T11:59:42.379Z,21.10
2017-06-29T12:02:08.310Z,21.00
2017-06-29T12:04:34.235Z,21.00
2017-06-29T12:07:00.143Z,21.00
2017-06-29T12:09:26.058Z,21.10
2017-06-29T12:11:52.003Z,21.30
2017-06-29T12:14:17.921Z,21.30
2017-06-29T12:16:43.860Z,21.40
2017-06-29T12:19:09.808Z,21.40
2017-06-29T12:21:35.751Z,21.50
2017-06-29T12:24:01.707Z,21.50
2017-06-29T12:26:28.364Z,21.80
2017-06-29T12:28:54.259Z,21.70
2017-06-29T12:31:20.218Z,21.70
2017-06-29T12:33:46.143Z,21.60
2017-06-29T12:36:12.114Z,21.60
2017-06-29T12:38:38.027Z,21.50
2017-06-29T12:41:04.154Z,21.30
2017-06-29T12:43:30.071Z,21.40
2017-06-29T12:45:56.015Z,21.40
2017-06-29T12:48:21.947Z,21.30
2017-06-29T12:50:47.942Z,21.40
2017-06-29T12:53:13.865Z,21.20
2017-06-29T12:55:39.826Z,20.70
2017-06-29T12:58:05.831Z,20.20
2017-06-29T13:00:31.847Z,19.60
2017-06-29T13:02:57.772Z,19.40
2017-06-29T13:05:23.715Z,19.40
2017-06-29T13:07:49.628Z,19.20
2017-06-29T13:10:15.540Z,19.10
2017-06-29T13:12:41.498Z,19.30
2017-06-29T13:15:07.435Z,19.50
2017-06-29T13:17:33.385Z,19.80
2017-06-29T13:19:59.290Z,20.10
2017-06-29T13:22:25.249Z,20.30
2017-06-29T13:24:51.223Z,20.50
2017-06-29T13:27:17.159Z,20.70
2017-06-29T13:29:43.104Z,20.70
2017-06-29T13:32:09.779Z,20.60
2017-06-29T13:34:35.728Z,20.50
2017-06-29T13:37:01.649Z,20.60
2017-06-29T13:39:27.573Z,20.90
2017-06-29T13:41:53.486Z,20.90
2017-06-29T13:44:19.411Z,21.00
2017-06-29T13:46:45.324Z,21.20
2017-06-29T13:49:11.286Z,21.30
2017-06-29T13:51:37.215Z,21.50
2017-06-29T13:54:03.120Z,21.80
2017-06-29T13:56:29.041Z,22.00
2017-06-29T13:58:54.970Z,22.20
2017-06-29T14:01:20.883Z,22.40
2017-06-29T14:03:46.804Z,22.50
2017-06-29T14:06:12.729Z,22.70
2017-06-29T14:08:38.671Z,22.80
2017-06-29T14:11:04.719Z,22.70
2017-06-29T14:13:30.636Z,22.80
2017-06-29T14:15:56.567Z,22.90
2017-06-29T14:18:22.508Z,23.00
2017-06-29T14:20:48.471Z,23.20
2017-06-29T14:23:14.455Z,23.30
2017-06-29T14:25:40.383Z,23.40
2017-06-29T14:28:06.508Z,23.40
2017-06-29T14:30:32.453Z,23.50
2017-06-29T14:32:58.423Z,23.70
2017-06-29T14:35:24.388Z,23.80
2017-06-29T14:37:50.407Z,23.80
2017-06-29T14:40:16.390Z,23.90
2017-06-29T14:42:42.345Z,24.00
2017-06-29T14:45:08.278Z,24.10
2017-06-29T14:47:34.251Z,24.30
2017-06-29T14:50:00.204Z,24.30
2017-06-29T14:52:27.115Z,24.20
2017-06-29T14:54:53.040Z,24.10
2017-06-29T14:57:19.058Z,24.00
2017-06-29T14:59:45.103Z,23.90
2017-06-29T15:02:11.211Z,23.70
2017-06-29T15:04:37.161Z,23.50
2017-06-29T15:07:03.131Z,23.40
2017-06-29T15:09:29.107Z,23.40
2017-06-29T15:11:55.040Z,23.20
2017-06-29T15:14:20.962Z,23.40
2017-06-29T15:16:46.884Z,23.40
2017-06-29T15:19:12.831Z,23.80
2017-06-29T15:21:38.844Z,24.00
2017-06-29T15:24:04.932Z,24.40
2017-06-29T15:26:30.891Z,24.40
2017-06-29T15:28:56.851Z,24.50
2017-06-29T15:31:23.646Z,24.90
2017-06-29T15:33:49.644Z,24.90
2017-06-29T15:36:15.572Z,25.10
2017-06-29T15:38:41.594Z,25.40
2017-06-29T15:41:07.502Z,25.70
2017-06-29T15:43:33.423Z,25.60
2017-06-29T15:45:59.367Z,25.60
2017-06-29T15:48:25.468Z,25.60
2017-06-29T15:50:52.140Z,25.90
2017-06-29T15:53:18.631Z,25.90
2017-06-29T15:55:44.678Z,25.90
2017-06-29T15:58:10.608Z,25.90
2017-06-29T16:00:36.571Z,25.80
2017-06-29T16:03:02.536Z,25.70
2017-06-29T16:05:29.367Z,25.60
2017-06-29T16:07:55.334Z,25.40
2017-06-29T16:10:21.416Z,25.20
2017-06-29T16:12:47.453Z,25.00
2017-06-29T16:15:13.366Z,24.40
2017-06-29T16:17:39.322Z,23.70
2017-06-29T16:20:05.309Z,23.10
2017-06-29T16:22:31.255Z,22.80
2017-06-29T16:24:57.205Z,22.50
2017-06-29T16:27:23.116Z,22.00
2017-06-29T16:29:55.908Z,21.80
2017-06-29T16:32:21.863Z,21.30
2017-06-29T16:34:47.799Z,21.00
2017-06-29T16:37:13.772Z,20.40
2017-06-29T16:39:39.704Z,20.00
2017-06-29T16:42:05.655Z,19.60
2017-06-29T16:44:31.596Z,19.40
2017-06-29T16:46:57.544Z,19.30
2017-06-29T16:49:23.452Z,19.40
2017-06-29T16:51:49.395Z,19.40
2017-06-29T16:54:15.291Z,19.30
2017-06-29T16:56:41.586Z,19.30
2017-06-29T16:59:07.510Z,19.30
2017-06-29T17:01:33.431Z,19.40
2017-06-29T17:03:59.404Z,19.40
2017-06-29T17:06:25.459Z,19.30
2017-06-29T17:11:29.006Z,19.20
2017-06-29T17:13:54.899Z,19.20
2017-06-29T17:16:20.794Z,19.20
2017-06-29T17:18:46.798Z,19.00
2017-06-29T17:21:12.821Z,19.00
2017-06-29T17:23:38.772Z,18.60
2017-06-29T17:26:05.411Z,18.80
2017-06-29T17:28:31.331Z,18.90
2017-06-29T17:30:57.233Z,19.10
2017-06-29T17:33:23.163Z,19.20
2017-06-29T17:35:49.131Z,19.30
2017-06-29T17:38:15.080Z,19.40
2017-06-29T17:40:41.015Z,19.50
2017-06-29T17:43:06.955Z,19.60
2017-06-29T17:45:32.876Z,19.50
2017-06-29T17:47:58.843Z,19.40
2017-06-29T17:50:24.792Z,19.30
2017-06-29T17:52:50.730Z,19.20
2017-06-29T17:55:17.430Z,19.10
2017-06-29T17:57:44.240Z,19.10
2017-06-29T18:00:10.234Z,19.10
2017-06-29T18:02:36.153Z,19.10
2017-06-29T18:05:02.097Z,19.00
2017-06-29T18:07:28.035Z,19.00
2017-06-29T18:09:53.951Z,19.00
2017-06-29T18:12:19.940Z,18.90
2017-06-29T18:14:46.634Z,19.00
2017-06-29T18:17:12.596Z,19.00
2017-06-29T18:19:38.529Z,19.00
2017-06-29T18:22:04.501Z,19.10
2017-06-29T18:24:30.445Z,19.20
2017-06-29T18:26:57.132Z,19.00
2017-06-29T18:29:23.056Z,18.90
2017-06-29T18:31:49.027Z,18.90
2017-06-29T18:34:14.939Z,18.50
2017-06-29T18:36:40.856Z,18.40
2017-06-29T18:39:06.782Z,18.30
2017-06-29T18:41:32.691Z,18.30
2017-06-29T18:43:58.675Z,18.50
2017-06-29T18:46:24.584Z,18.50
2017-06-29T18:48:50.531Z,18.50
2017-06-29T18:51:16.459Z,18.60
2017-06-29T18:53:42.353Z,18.80
2017-06-29T18:56:08.252Z,18.90
2017-06-29T18:58:34.207Z,18.90
2017-06-29T19:01:00.111Z,19.00
2017-06-29T19:03:26.060Z,19.00
2017-06-29T19:05:51.986Z,19.00
2017-06-29T19:08:17.888Z,18.90
2017-06-29T19:10:43.791Z,18.80
2017-06-29T19:13:09.714Z,18.80
2017-06-29T19:15:35.626Z,18.70
2017-06-29T19:18:01.571Z,18.70
2017-06-29T19:20:27.563Z,18.60
2017-06-29T19:22:53.486Z,18.40
2017-06-29T19:25:19.467Z,18.30
2017-06-29T19:27:45.397Z,18.20
2017-06-29T19:30:11.365Z,18.20
2017-06-29T19:32:37.420Z,18.20
2017-06-29T19:35:03.372Z,18.20
2017-06-29T19:37:29.378Z,18.20
2017-06-29T19:39:55.314Z,18.20
2017-06-29T19:42:21.222Z,18.20
2017-06-29T19:44:47.219Z,18.20
2017-06-29T19:47:13.159Z,18.10
2017-06-29T19:49:39.140Z,18.10
2017-06-29T19:52:05.063Z,18.10
2017-06-29T19:54:30.992Z,18.10
2017-06-29T19:56:56.966Z,18.10
2017-06-29T19:59:23.636Z,18.10
2017-06-29T20:01:49.559Z,18.00
2017-06-29T20:04:15.475Z,18.10
2017-06-29T20:06:41.419Z,18.10
2017-06-29T20:09:07.399Z,18.00
2017-06-29T20:11:33.533Z,18.00
2017-06-29T20:13:59.498Z,18.10
2017-06-29T20:16:25.472Z,18.10
2017-06-29T20:18:51.407Z,17.90
2017-06-29T20:21:17.323Z,17.90
2017-06-29T20:23:43.237Z,17.80
2017-06-29T20:26:09.157Z,17.70
2017-06-29T20:28:35.191Z,17.80
2017-06-29T20:31:01.166Z,17.70
2017-06-29T20:33:27.091Z,17.60
2017-06-29T20:38:25.686Z,17.60
2017-06-29T20:40:51.681Z,17.50
2017-06-29T20:43:17.660Z,17.50
2017-06-29T20:45:43.618Z,17.50
2017-06-29T20:48:09.610Z,17.40
2017-06-29T20:50:35.556Z,17.40
2017-06-29T20:53:01.513Z,17.30
2017-06-29T20:55:27.461Z,17.30
2017-06-29T20:57:53.368Z,17.30
2017-06-29T21:00:19.451Z,17.40
2017-06-29T21:02:45.366Z,17.40
2017-06-29T21:05:11.327Z,17.20
2017-06-29T21:07:37.983Z,17.20
2017-06-29T21:10:03.965Z,17.20
2017-06-29T21:12:29.875Z,17.20
2017-06-29T21:14:55.775Z,17.20
2017-06-29T21:17:21.709Z,17.20
2017-06-29T21:19:47.639Z,17.20
2017-06-29T21:22:13.559Z,17.20
2017-06-29T21:24:39.575Z,17.20
2017-06-29T21:27:05.576Z,17.20
2017-06-29T21:29:31.484Z,17.20
2017-06-29T21:31:57.394Z,17.20
2017-06-29T21:34:23.303Z,17.30
2017-06-29T21:36:49.959Z,17.20
2017-06-29T21:39:15.903Z,17.20
2017-06-29T21:41:41.837Z,17.20
2017-06-29T21:44:07.767Z,17.30
2017-06-29T21:46:33.712Z,17.40
2017-06-29T21:48:59.688Z,17.30
2017-06-29T21:51:25.615Z,17.20
2017-06-29T21:53:52.515Z,17.20
2017-06-29T21:56:18.445Z,17.10
2017-06-29T21:58:44.393Z,17.10
2017-06-29T22:01:10.345Z,17.00
2017-06-29T22:03:36.277Z,17.00
2017-06-29T22:06:02.364Z,17.00
2017-06-29T22:08:28.317Z,16.90
2017-06-29T22:10:55.041Z,16.90
2017-06-29T22:13:21.041Z,16.80
2017-06-29T22:15:46.992Z,16.90
2017-06-29T22:18:12.935Z,16.90
2017-06-29T22:20:39.058Z,16.90
2017-06-29T22:23:05.426Z,16.90
2017-06-29T22:25:31.775Z,16.90
2017-06-29T22:27:58.393Z,16.80
2017-06-29T22:30:24.323Z,16.80
2017-06-29T22:32:50.297Z,16.80
2017-06-29T22:35:16.989Z,16.70
2017-06-29T22:37:42.907Z,16.80
2017-06-29T22:40:08.812Z,16.70
2017-06-29T22:42:34.739Z,16.70
2017-06-29T22:45:00.665Z,16.70
2017-06-29T22:47:26.579Z,16.70
2017-06-29T22:49:52.535Z,16.60
2017-06-29T22:52:18.455Z,16.60
2017-06-29T22:54:44.399Z,16.60
2017-06-29T22:57:10.341Z,16.60
2017-06-29T22:59:36.262Z,16.70
2017-06-29T23:02:02.170Z,16.60
2017-06-29T23:04:28.138Z,16.60
2017-06-29T23:06:54.063Z,16.40
2017-06-29T23:09:20.004Z,16.40
2017-06-29T23:11:46.664Z,16.30
2017-06-29T23:14:12.603Z,16.20
2017-06-29T23:16:38.760Z,16.20
2017-06-29T23:19:04.705Z,16.20
2017-06-29T23:21:30.623Z,16.20
2017-06-29T23:23:56.553Z,16.10
2017-06-29T23:26:22.475Z,16.10
2017-06-29T23:28:48.384Z,16.10
2017-06-29T23:31:14.313Z,16.10
2017-06-29T23:33:40.268Z,16.10
2017-06-29T23:36:06.209Z,16.10
2017-06-29T23:38:32.121Z,16.10
2017-06-29T23:40:58.064Z,16.10
2017-06-29T23:43:23.995Z,16.00
2017-06-29T23:45:49.972Z,16.00
2017-06-29T23:48:15.948Z,16.00
2017-06-29T23:50:41.879Z,16.00
2017-06-29T23:53:07.806Z,16.00
2017-06-29T23:55:33.707Z,16.00
2017-06-29T23:57:59.622Z,16.00
